Time;durP1;ratioP1;P1;durP2;ratioP2;P2;SDS_P1;SDS_P2;PMS_P1;PMS_P2;Temp;Humidity;BMP_temperature;BMP_pressure;BME280_temperature;BME280_humidity;BME280_pressure;Samples;Min_cycle;Max_cycle;Signal;HPM_P1;HPM_P2
2022/11/15 00:00:53;;;;;;;44.45;20.17;;;8.90;99.90;;;;;;6156344;23;20009;-85
2022/11/15 00:03:22;;;;;;;43.05;20.50;;;8.90;99.90;;;;;;6156132;23;20443;-85
2022/11/15 00:05:48;;;;;;;44.33;20.08;;;9.00;99.90;;;;;;6158194;23;20009;-85
2022/11/15 00:08:14;;;;;;;44.65;20.88;;;9.00;99.90;;;;;;6131782;23;20370;-85
2022/11/15 00:10:40;;;;;;;41.33;20.48;;;9.00;99.90;;;;;;6131991;23;20013;-85
2022/11/15 00:13:11;;;;;;;40.25;20.02;;;9.00;99.90;;;;;;6134097;23;20009;-86
2022/11/15 00:15:38;;;;;;;46.10;21.58;;;9.10;99.90;;;;;;6163781;23;20020;-85
2022/11/15 00:18:04;;;;;;;40.13;19.63;;;9.10;99.90;;;;;;6157894;23;20005;-86
2022/11/15 00:20:33;;;;;;;37.35;20.38;;;9.10;99.90;;;;;;6131047;23;20037;-86
2022/11/15 00:22:58;;;;;;;40.70;20.58;;;9.20;99.90;;;;;;6131649;23;20416;-85
2022/11/15 00:25:24;;;;;;;35.10;18.80;;;9.20;99.90;;;;;;6131638;23;20041;-86
2022/11/15 00:27:51;;;;;;;31.45;17.67;;;9.20;99.90;;;;;;6155355;23;20017;-85
2022/11/15 00:30:17;;;;;;;40.00;19.45;;;9.20;99.90;;;;;;6160970;23;20005;-85
2022/11/15 00:32:43;;;;;;;35.00;19.17;;;9.20;99.90;;;;;;6136400;23;20017;-85
2022/11/15 00:35:12;;;;;;;32.58;18.90;;;9.30;99.90;;;;;;6111814;23;20005;-83
2022/11/15 00:37:37;;;;;;;34.58;17.80;;;9.30;99.90;;;;;;6160364;23;20032;-83
2022/11/15 00:40:04;;;;;;;33.22;19.23;;;9.30;99.90;;;;;;6111964;23;20012;-83
2022/11/15 00:42:29;;;;;;;34.05;17.73;;;9.30;99.90;;;;;;6136187;23;20692;-82
2022/11/15 00:44:55;;;;;;;38.45;19.20;;;9.30;99.90;;;;;;6135934;23;20012;-82
2022/11/15 00:47:21;;;;;;;37.20;18.23;;;9.30;99.90;;;;;;6135878;23;20499;-83
2022/11/15 00:49:46;;;;;;;34.97;19.25;;;9.30;99.90;;;;;;6135810;23;20092;-82
2022/11/15 00:52:12;;;;;;;33.67;19.33;;;9.30;99.90;;;;;;6110787;23;20013;-83
2022/11/15 00:54:38;;;;;;;33.25;19.85;;;9.30;99.90;;;;;;6186555;23;20005;-82
2022/11/15 00:57:04;;;;;;;39.20;20.30;;;9.30;99.90;;;;;;6135310;23;20509;-82
2022/11/15 00:59:30;;;;;;;38.47;20.90;;;9.30;99.90;;;;;;6135438;23;20344;-83
2022/11/15 01:01:55;;;;;;;37.20;20.00;;;9.30;99.90;;;;;;6110801;23;20009;-82
2022/11/15 01:04:21;;;;;;;34.25;20.42;;;9.30;99.90;;;;;;6111019;23;20063;-82
2022/11/15 01:06:47;;;;;;;33.60;18.88;;;9.30;99.90;;;;;;6135887;23;20005;-83
2022/11/15 01:09:13;;;;;;;36.85;19.30;;;9.30;99.90;;;;;;6111276;23;20084;-83
2022/11/15 01:11:39;;;;;;;32.63;19.20;;;9.30;99.90;;;;;;6184726;23;20383;-83
2022/11/15 01:14:05;;;;;;;35.75;18.30;;;9.40;99.90;;;;;;6111065;23;20005;-83
2022/11/15 01:16:32;;;;;;;36.38;19.60;;;9.40;99.90;;;;;;6184551;23;20013;-83
2022/11/15 01:18:58;;;;;;;36.65;20.10;;;9.40;99.90;;;;;;6186197;23;20331;-83
2022/11/15 01:21:24;;;;;;;32.75;19.23;;;9.40;99.90;;;;;;6135330;23;20095;-83
2022/11/15 01:23:54;;;;;;;36.55;20.38;;;9.40;99.90;;;;;;6135120;23;20009;-82
2022/11/15 01:26:19;;;;;;;36.22;20.52;;;9.40;99.90;;;;;;6156090;23;20420;-83
2022/11/15 01:28:45;;;;;;;36.90;20.95;;;9.40;99.90;;;;;;6131030;23;20025;-82
2022/11/15 01:31:16;;;;;;;34.45;18.70;;;9.40;99.90;;;;;;6155273;23;20009;-82
2022/11/15 01:33:42;;;;;;;34.55;20.48;;;9.50;99.90;;;;;;6155307;23;20471;-83
2022/11/15 01:36:12;;;;;;;33.75;19.38;;;9.50;99.90;;;;;;6130789;23;20005;-82
2022/11/15 01:38:37;;;;;;;32.97;19.48;;;9.50;99.90;;;;;;6155279;23;20016;-82
2022/11/15 01:41:04;;;;;;;30.75;18.75;;;9.50;99.90;;;;;;6155222;23;20009;-85
2022/11/15 01:43:32;;;;;;;34.13;19.52;;;9.50;99.90;;;;;;6155260;23;20008;-85
2022/11/15 01:46:24;;;;;;;34.28;18.77;;;9.50;99.90;;;;;;6155443;23;20097;-84
2022/11/15 01:48:53;;;;;;;30.63;18.17;;;9.50;99.90;;;;;;6164381;23;20101;-84
2022/11/15 01:51:21;;;;;;;33.17;20.52;;;9.60;99.90;;;;;;6155054;23;20001;-84
2022/11/15 01:54:51;;;;;;;34.42;18.80;;;9.60;99.90;;;;;;6155491;23;20009;-84
2022/11/15 01:57:17;;;;;;;34.05;19.80;;;9.60;99.90;;;;;;6138505;23;20412;-83
2022/11/15 01:59:44;;;;;;;40.65;20.27;;;9.60;99.90;;;;;;6130443;23;20016;-82
2022/11/15 02:02:10;;;;;;;32.85;19.15;;;9.60;99.90;;;;;;6154966;23;20068;-82
2022/11/15 02:04:45;;;;;;;36.30;20.83;;;9.70;99.90;;;;;;6154672;23;20052;-83
2022/11/15 02:07:13;;;;;;;32.42;19.80;;;9.70;99.90;;;;;;6154521;23;20043;-82
2022/11/15 02:09:39;;;;;;;33.58;19.67;;;9.70;99.90;;;;;;6130882;23;20006;-82
2022/11/15 02:12:08;;;;;;;35.47;18.50;;;9.70;99.90;;;;;;6132735;23;20029;-82
2022/11/15 02:14:35;;;;;;;33.08;20.08;;;9.80;99.90;;;;;;6156596;23;20024;-82
2022/11/15 02:17:13;;;;;;;32.30;18.90;;;9.80;99.90;;;;;;6156476;23;20009;-82
2022/11/15 02:19:44;;;;;;;37.10;19.92;;;9.80;99.90;;;;;;6156684;23;20012;-82
2022/11/15 02:22:38;;;;;;;35.45;20.38;;;9.90;99.90;;;;;;6156412;23;20005;-82
2022/11/15 02:25:06;;;;;;;33.83;20.20;;;9.90;99.90;;;;;;6156548;23;20010;-84
2022/11/15 02:27:59;;;;;;;32.28;19.60;;;9.90;99.90;;;;;;6177935;23;20331;-85
2022/11/15 02:31:05;;;;;;;34.53;20.25;;;9.90;99.90;;;;;;6187886;23;20455;-85
2022/11/15 02:33:58;;;;;;;35.20;21.10;;;10.00;99.90;;;;;;6038915;23;20033;-85
2022/11/15 02:36:41;;;;;;;39.05;20.35;;;10.00;99.90;;;;;;6182290;23;20001;-85
2022/11/15 02:39:34;;;;;;;30.23;18.52;;;10.00;99.90;;;;;;6161490;23;20005;-85
2022/11/15 02:43:56;;;;;;;32.35;19.55;;;10.00;99.90;;;;;;6106772;23;20000;-85
2022/11/15 02:45:01;;;;;;;35.35;21.15;;;10.10;99.90;;;;;;6187550;23;20001;-85
2022/11/15 02:47:29;;;;;;;34.13;19.65;;;10.10;99.90;;;;;;6188206;23;20028;-85
2022/11/15 02:50:00;;;;;;;30.20;19.25;;;10.10;99.90;;;;;;6161133;23;20039;-85
2022/11/15 02:52:26;;;;;;;35.38;20.52;;;10.10;99.90;;;;;;6161193;23;20005;-85
2022/11/15 02:54:57;;;;;;;32.22;19.33;;;10.20;99.90;;;;;;6161587;23;20443;-85
2022/11/15 02:57:43;;;;;;;33.20;19.23;;;10.20;99.90;;;;;;6161073;23;20001;-85
2022/11/15 03:00:10;;;;;;;33.33;19.67;;;10.20;99.90;;;;;;6140933;23;20092;-85
2022/11/15 03:03:07;;;;;;;35.63;20.83;;;10.20;99.90;;;;;;6161177;23;20016;-85
2022/11/15 03:06:06;;;;;;;35.22;20.48;;;10.20;99.90;;;;;;6161298;23;20009;-83
2022/11/15 03:08:42;;;;;;;35.45;20.15;;;10.30;99.90;;;;;;6160931;23;20009;-83
2022/11/15 03:11:14;;;;;;;32.72;20.30;;;10.30;99.90;;;;;;6161093;23;20008;-83
2022/11/15 03:13:50;;;;;;;33.97;18.70;;;10.30;99.90;;;;;;6160870;23;20028;-83
2022/11/15 03:16:32;;;;;;;31.48;19.27;;;10.40;99.90;;;;;;6160927;23;20001;-83
2022/11/15 03:19:22;;;;;;;31.23;20.13;;;10.40;99.90;;;;;;6161217;23;20024;-83
2022/11/15 03:21:50;;;;;;;35.03;21.90;;;10.40;99.90;;;;;;6186239;23;20073;-83
2022/11/15 03:24:17;;;;;;;34.83;20.73;;;10.40;99.90;;;;;;6161107;23;20001;-83
2022/11/15 03:26:46;;;;;;;32.25;20.40;;;10.50;99.90;;;;;;6160629;23;20019;-83
2022/11/15 03:29:22;;;;;;;34.28;21.27;;;10.50;99.90;;;;;;6160772;23;20468;-83
2022/11/15 03:31:58;;;;;;;34.97;21.60;;;10.50;99.90;;;;;;6160895;23;19997;-83
2022/11/15 03:34:28;;;;;;;37.40;21.85;;;10.60;99.90;;;;;;6160832;23;20001;-83
2022/11/15 03:36:55;;;;;;;34.27;22.03;;;10.60;99.90;;;;;;6160760;23;20005;-85
2022/11/15 03:39:22;;;;;;;40.55;22.42;;;10.60;99.90;;;;;;6161739;23;20232;-84
2022/11/15 03:42:02;;;;;;;35.45;22.60;;;10.70;99.90;;;;;;6160687;23;20005;-85
2022/11/15 03:44:31;;;;;;;35.97;20.75;;;10.70;99.90;;;;;;6161208;23;20059;-85
2022/11/15 03:46:56;;;;;;;39.22;22.70;;;10.70;99.90;;;;;;6187251;23;20388;-85
2022/11/15 03:49:34;;;;;;;36.90;22.90;;;10.80;99.90;;;;;;6187215;23;20067;-84
2022/11/15 03:52:02;;;;;;;38.63;22.23;;;10.80;99.90;;;;;;6185477;23;20071;-84
2022/11/15 03:54:28;;;;;;;40.17;23.27;;;10.80;99.90;;;;;;6161326;23;20008;-85
2022/11/15 03:56:53;;;;;;;34.75;21.35;;;10.90;99.90;;;;;;6162589;23;20005;-84
2022/11/15 03:59:19;;;;;;;41.78;22.70;;;10.90;99.90;;;;;;6161922;23;20009;-85
2022/11/15 04:01:45;;;;;;;44.70;25.08;;;11.00;99.90;;;;;;6186124;23;20009;-85
2022/11/15 04:04:11;;;;;;;36.40;22.23;;;10.90;99.90;;;;;;6136312;23;20013;-85
2022/11/15 04:06:36;;;;;;;39.72;22.92;;;11.00;99.90;;;;;;6187099;23;20012;-84
2022/11/15 04:09:02;;;;;;;37.33;22.15;;;11.00;99.90;;;;;;6185680;23;20555;-84
2022/11/15 04:11:28;;;;;;;36.97;22.85;;;11.10;99.90;;;;;;6160711;23;20008;-85
2022/11/15 04:13:54;;;;;;;41.63;21.52;;;11.10;99.90;;;;;;6160417;23;20043;-85
2022/11/15 04:16:19;;;;;;;35.42;22.85;;;11.10;99.90;;;;;;6111279;23;20001;-85
2022/11/15 04:24:11;;;;;;;37.67;22.25;;;11.20;99.90;;;;;;6136011;23;20083;-84
2022/11/15 04:24:15;;;;;;;33.97;21.15;;;11.20;99.90;;;;;;6143904;23;20089;-84
2022/11/15 04:26:41;;;;;;;36.17;21.48;;;11.20;99.90;;;;;;6186146;23;20454;-85
2022/11/15 04:31:51;;;;;;;38.25;22.77;;;11.30;99.90;;;;;;6146365;23;20024;-86
2022/11/15 04:34:17;;;;;;;37.38;21.70;;;11.30;99.90;;;;;;6164590;23;19997;-85
2022/11/15 04:39:36;;;;;;;32.70;20.75;;;11.30;99.90;;;;;;6147423;23;20072;-86
2022/11/15 04:42:02;;;;;;;32.97;20.25;;;11.40;99.90;;;;;;6111770;23;20045;-85
2022/11/15 04:44:28;;;;;;;33.53;21.38;;;11.40;99.90;;;;;;6160564;23;20013;-85
2022/11/15 04:46:54;;;;;;;35.15;21.08;;;11.40;99.90;;;;;;6159911;23;20012;-85
2022/11/15 04:49:19;;;;;;;34.53;20.60;;;11.40;99.90;;;;;;6160444;23;20055;-85
2022/11/15 04:51:45;;;;;;;36.92;21.70;;;11.40;99.90;;;;;;6160797;23;20009;-85
2022/11/15 04:54:11;;;;;;;34.47;21.05;;;11.40;99.90;;;;;;6185286;23;20100;-84
2022/11/15 04:56:37;;;;;;;35.40;22.92;;;11.40;99.90;;;;;;6185530;23;20098;-85
2022/11/15 04:59:03;;;;;;;33.53;21.08;;;11.40;99.90;;;;;;6111997;23;20409;-85
2022/11/15 05:01:28;;;;;;;36.45;21.25;;;11.50;99.90;;;;;;6161196;23;20494;-83
2022/11/15 05:06:38;;;;;;;37.00;22.10;;;11.50;99.90;;;;;;6165535;23;20067;-82
2022/11/15 05:09:04;;;;;;;38.88;22.05;;;11.50;99.90;;;;;;6136219;23;20009;-83
2022/11/15 05:11:30;;;;;;;39.10;23.15;;;11.50;99.90;;;;;;6160543;23;20001;-83
2022/11/15 05:13:55;;;;;;;40.70;23.33;;;11.60;99.90;;;;;;6135942;23;20004;-83
2022/11/15 05:16:22;;;;;;;36.15;21.90;;;11.60;99.90;;;;;;6135620;23;20059;-82
2022/11/15 05:18:51;;;;;;;42.63;21.88;;;11.60;99.90;;;;;;6185963;23;20001;-82
2022/11/15 05:21:17;;;;;;;39.50;22.15;;;11.60;99.90;;;;;;6135430;23;20001;-82
2022/11/15 05:23:43;;;;;;;41.20;23.05;;;11.60;99.90;;;;;;6134955;23;20013;-82
2022/11/15 05:26:10;;;;;;;37.60;22.42;;;11.70;99.90;;;;;;6110555;23;20170;-82
2022/11/15 05:28:36;;;;;;;37.58;23.10;;;11.70;99.90;;;;;;6159627;23;20009;-82
2022/11/15 05:31:02;;;;;;;41.45;22.98;;;11.70;99.90;;;;;;6186065;23;20008;-83
2022/11/15 05:33:29;;;;;;;44.97;23.65;;;11.70;99.90;;;;;;6184700;23;20063;-85
2022/11/15 05:36:02;;;;;;;37.75;20.88;;;11.70;99.90;;;;;;6159754;23;19997;-84
2022/11/15 05:38:44;;;;;;;;;;;;;;;;;;;;;
2022/11/15 05:41:16;;;;;;;46.42;23.73;;;11.70;99.90;;;;;;6218919;23;20100;-94
2022/11/15 05:43:51;;;;;;;42.53;22.65;;;11.70;99.90;;;;;;6218073;23;20000;-94
2022/11/15 05:46:46;;;;;;;;;;;;;;;;;;;;;
2022/11/15 05:52:45;;;;;;;39.03;22.40;;;11.80;99.90;;;;;;6216956;23;20004;-95
2022/11/15 05:59:01;;;;;;;;;;;;;;;;;;;;;
2022/11/15 06:02:23;;;;;;;48.92;23.80;;;11.80;99.90;;;;;;6221155;23;20032;-95
2022/11/15 06:05:04;;;;;;;;;;;;;;;;;;;;;
2022/11/15 06:07:46;;;;;;;38.80;22.42;;;11.80;99.90;;;;;;6202211;23;20040;-96
2022/11/15 06:13:55;;;;;;;;;;;;;;;;;;;;;
2022/11/15 06:16:33;;;;;;;38.63;23.02;;;11.80;99.90;;;;;;6226072;23;20036;-95
2022/11/15 06:19:14;;;;;;;38.70;22.17;;;11.90;99.90;;;;;;6170914;23;20059;-95
2022/11/15 06:22:58;;;;;;;;;;;;;;;;;;;;;
2022/11/15 06:24:57;;;;;;;37.08;21.35;;;11.90;99.90;;;;;;6156441;23;20009;-89
2022/11/15 06:27:22;;;;;;;36.83;21.00;;;11.90;99.90;;;;;;6167453;23;20093;-88
2022/11/15 06:29:51;;;;;;;38.60;21.02;;;11.90;99.90;;;;;;6191458;23;20080;-87
2022/11/15 06:32:18;;;;;;;32.88;20.33;;;11.90;99.90;;;;;;6167160;23;20036;-87
2022/11/15 06:34:43;;;;;;;35.75;21.95;;;12.00;99.90;;;;;;6217993;23;20001;-87
2022/11/15 06:37:09;;;;;;;39.67;21.05;;;12.00;99.90;;;;;;6216700;23;20088;-89
2022/11/15 06:39:37;;;;;;;34.25;20.25;;;12.00;99.90;;;;;;6216485;23;20013;-88
2022/11/15 06:42:03;;;;;;;31.77;19.50;;;12.00;99.90;;;;;;6191646;23;20012;-88
2022/11/15 06:44:39;;;;;;;36.35;20.73;;;12.00;99.90;;;;;;6216283;23;19997;-88
2022/11/15 06:47:05;;;;;;;32.90;19.88;;;12.00;99.90;;;;;;6216832;23;20008;-88
2022/11/15 06:49:39;;;;;;;31.83;20.48;;;12.10;99.90;;;;;;6166978;23;20024;-88
2022/11/15 06:52:05;;;;;;;34.53;20.15;;;12.10;99.90;;;;;;6216541;23;20008;-88
2022/11/15 06:54:31;;;;;;;33.55;19.55;;;12.10;99.90;;;;;;6217468;23;20028;-88
2022/11/15 06:57:00;;;;;;;30.40;19.35;;;12.10;99.90;;;;;;6217652;23;20323;-88
2022/11/15 06:59:28;;;;;;;29.13;20.35;;;12.10;99.90;;;;;;6217228;23;20000;-88
2022/11/15 07:01:54;;;;;;;34.75;20.42;;;12.10;99.90;;;;;;6221423;23;20015;-88
2022/11/15 07:04:19;;;;;;;29.83;18.73;;;12.10;99.90;;;;;;6222711;23;20040;-88
2022/11/15 07:06:51;;;;;;;31.48;20.83;;;12.10;99.90;;;;;;6197994;23;20004;-88
2022/11/15 07:09:17;;;;;;;32.10;20.02;;;12.10;99.90;;;;;;6176632;23;20011;-88
2022/11/15 07:11:42;;;;;;;33.55;20.65;;;12.20;99.90;;;;;;6230288;23;20016;-89
2022/11/15 07:14:11;;;;;;;27.60;19.05;;;12.20;99.90;;;;;;6179859;23;20068;-89
2022/11/15 07:16:44;;;;;;;31.15;20.42;;;12.20;99.90;;;;;;6229472;23;20007;-89
2022/11/15 07:19:10;;;;;;;32.47;19.85;;;12.10;99.90;;;;;;6224313;23;20003;-89
2022/11/15 07:21:38;;;;;;;35.72;20.73;;;12.10;99.90;;;;;;6223000;23;20001;-89
2022/11/15 07:24:07;;;;;;;32.58;19.55;;;12.10;99.90;;;;;;6200293;23;20008;-91
2022/11/15 07:26:35;;;;;;;29.50;18.83;;;12.00;99.90;;;;;;6207784;23;20001;-90
2022/11/15 07:29:03;;;;;;;29.13;18.75;;;12.00;99.90;;;;;;6239297;23;19996;-91
2022/11/15 07:31:37;;;;;;;32.40;18.40;;;12.00;99.90;;;;;;6240329;23;20001;-92
2022/11/15 07:34:02;;;;;;;32.75;19.48;;;12.00;99.90;;;;;;6214832;23;19996;-93
2022/11/15 07:36:40;;;;;;;34.97;19.95;;;12.00;99.90;;;;;;6234949;23;20056;-93
2022/11/15 07:39:13;;;;;;;34.70;19.38;;;12.00;99.90;;;;;;6187794;23;20023;-92
2022/11/15 07:42:52;;;;;;;32.70;19.15;;;12.00;99.90;;;;;;6202338;23;20005;-92
2022/11/15 07:44:45;;;;;;;31.27;18.80;;;12.00;99.90;;;;;;6234184;23;20004;-92
2022/11/15 07:47:55;;;;;;;34.75;18.67;;;12.00;99.90;;;;;;6208114;23;20008;-92
2022/11/15 07:50:31;;;;;;;27.85;17.70;;;12.00;99.90;;;;;;6185322;23;20061;-92
2022/11/15 07:53:06;;;;;;;29.70;19.38;;;12.00;99.90;;;;;;6194174;23;20036;-93
2022/11/15 07:55:41;;;;;;;31.15;19.05;;;12.00;99.90;;;;;;6170020;23;20461;-92
2022/11/15 07:58:52;;;;;;;;;;;;;;;;;;;;;
2022/11/15 08:01:27;;;;;;;32.92;18.35;;;12.00;99.90;;;;;;6207439;23;20035;-92
2022/11/15 08:04:05;;;;;;;33.10;20.73;;;12.00;99.90;;;;;;6220469;23;20005;-90
2022/11/15 08:06:59;;;;;;;;;;;;;;;;;;;;;
2022/11/15 08:09:46;;;;;;;28.02;17.98;;;12.00;99.90;;;;;;6194133;23;20060;-90
2022/11/15 08:12:21;;;;;;;29.20;18.65;;;12.00;99.90;;;;;;6218033;23;20028;-90
2022/11/15 08:14:47;;;;;;;31.25;19.23;;;12.00;99.90;;;;;;6192412;23;20004;-92
2022/11/15 08:17:18;;;;;;;32.90;18.95;;;12.00;99.90;;;;;;6192620;23;20046;-90
2022/11/15 08:19:54;;;;;;;34.22;20.67;;;12.00;99.90;;;;;;6217961;23;20008;-92
2022/11/15 08:22:32;;;;;;;35.70;20.40;;;12.00;99.90;;;;;;6169277;23;20009;-91
2022/11/15 08:25:03;;;;;;;36.75;20.73;;;12.00;99.90;;;;;;6220143;23;20011;-91
2022/11/15 08:27:32;;;;;;;34.85;19.88;;;12.00;99.90;;;;;;6225408;23;20028;-90
2022/11/15 08:30:08;;;;;;;;;;;;;;;;;;;;;
2022/11/15 08:32:38;;;;;;;36.92;21.48;;;12.00;99.90;;;;;;6222299;23;20048;-90
2022/11/15 08:35:17;;;;;;;28.20;18.63;;;12.00;99.90;;;;;;6182303;23;20008;-91
2022/11/15 08:38:10;;;;;;;34.25;20.58;;;12.10;99.90;;;;;;6178309;23;20012;-90
2022/11/15 08:40:42;;;;;;;30.95;19.33;;;12.10;99.90;;;;;;6229731;23;20043;-90
2022/11/15 08:43:13;;;;;;;33.00;21.05;;;12.10;99.90;;;;;;6208072;23;20013;-93
2022/11/15 08:45:46;;;;;;;37.53;21.40;;;12.10;99.90;;;;;;6207673;23;20009;-89
2022/11/15 08:48:19;;;;;;;39.22;20.13;;;12.20;99.90;;;;;;6236551;23;20004;-90
2022/11/15 08:50:50;;;;;;;32.38;18.67;;;12.20;99.90;;;;;;6184291;23;20011;-91
2022/11/15 08:53:16;;;;;;;30.50;19.23;;;12.20;99.90;;;;;;6203829;23;20068;-89
2022/11/15 08:55:44;;;;;;;29.58;18.45;;;12.20;99.90;;;;;;6174336;23;20070;-89
2022/11/15 08:58:10;;;;;;;31.67;18.17;;;12.20;99.90;;;;;;6222485;23;20012;-90
2022/11/15 09:00:36;;;;;;;29.17;17.05;;;12.20;99.90;;;;;;6228670;23;20000;-91
2022/11/15 09:03:05;;;;;;;24.27;16.25;;;12.20;99.90;;;;;;6230984;23;20473;-89
2022/11/15 09:05:31;;;;;;;24.17;14.43;;;12.30;99.90;;;;;;6202017;23;20347;-89
2022/11/15 09:08:02;;;;;;;25.42;14.35;;;12.20;99.90;;;;;;6229590;23;20079;-91
2022/11/15 09:10:28;;;;;;;;;;;12.20;99.90;;;;;;6234730;23;20000;-89
2022/11/15 09:13:02;;;;;;;23.55;14.10;;;12.20;99.90;;;;;;6177812;23;19904;-89
2022/11/15 09:15:32;;;;;;;18.75;12.02;;;12.20;99.90;;;;;;6203693;23;20091;-91
2022/11/15 09:18:04;;;;;;;22.55;13.07;;;12.10;99.90;;;;;;6183358;23;20005;-90
2022/11/15 09:20:35;;;;;;;21.13;13.23;;;12.10;99.90;;;;;;6204410;23;20009;-89
2022/11/15 09:23:24;;;;;;;;;;;;;;;;;;;;;
2022/11/15 09:26:16;;;;;;;;;;;;;;;;;;;;;
2022/11/15 09:28:42;;;;;;;18.30;10.80;;;12.10;99.90;;;;;;6209882;23;20150;-91
2022/11/15 09:31:13;;;;;;;20.48;11.52;;;12.10;99.90;;;;;;6207359;23;20001;-90
2022/11/15 09:34:02;;;;;;;18.08;11.32;;;12.10;99.90;;;;;;6223049;23;20004;-91
2022/11/15 09:36:30;;;;;;;20.67;10.52;;;12.10;99.90;;;;;;6190836;23;20001;-91
2022/11/15 09:38:58;;;;;;;15.57;11.48;;;12.10;99.90;;;;;;6194274;23;20047;-91
2022/11/15 09:42:09;;;;;;;;;;;;;;;;;;;;;
2022/11/15 09:44:56;;;;;;;15.63;10.88;;;12.20;99.90;;;;;;6223237;23;20000;-94
2022/11/15 09:47:35;;;;;;;16.25;10.57;;;12.20;99.90;;;;;;6204762;23;20478;-95
2022/11/15 09:50:33;;;;;;;18.02;10.98;;;12.10;99.90;;;;;;6230895;23;19997;-96
2022/11/15 09:53:01;;;;;;;17.30;10.63;;;12.20;99.90;;;;;;6208249;23;20001;-95
2022/11/15 09:55:52;;;;;;;17.75;10.32;;;12.20;99.90;;;;;;6220284;23;20008;-94
2022/11/15 09:58:41;;;;;;;13.55;9.40;;;12.20;99.90;;;;;;6221581;23;20024;-94
2022/11/15 10:01:27;;;;;;;14.20;9.63;;;12.30;99.90;;;;;;6223467;23;20001;-95
2022/11/15 10:03:59;;;;;;;13.27;8.60;;;12.30;99.90;;;;;;6220180;23;20001;-95
2022/11/15 10:06:26;;;;;;;14.70;7.97;;;12.30;99.90;;;;;;6191698;23;20007;-87
2022/11/15 10:09:22;;;;;;;12.75;8.48;;;12.30;99.90;;;;;;6214889;23;20024;-86
2022/11/15 10:11:48;;;;;;;11.80;6.88;;;12.40;99.90;;;;;;6216117;23;20001;-86
2022/11/15 10:14:19;;;;;;;11.52;7.32;;;12.40;99.90;;;;;;6189752;23;20009;-86
2022/11/15 10:17:07;;;;;;;11.43;7.03;;;12.40;99.90;;;;;;6190245;23;20075;-86
2022/11/15 10:20:00;;;;;;;8.27;5.57;;;12.40;99.90;;;;;;6190141;23;20024;-85
2022/11/15 10:22:49;;;;;;;9.57;5.70;;;12.40;99.90;;;;;;6189343;23;20437;-86
2022/11/15 10:25:19;;;;;;;8.55;5.30;;;12.40;99.90;;;;;;6216048;23;20007;-84
2022/11/15 10:27:52;;;;;;;8.02;4.70;;;12.40;99.90;;;;;;6189299;23;20008;-86
2022/11/15 10:30:19;;;;;;;7.95;4.85;;;12.30;99.90;;;;;;6214807;23;20011;-88
2022/11/15 10:32:46;;;;;;;7.32;4.50;;;12.30;99.90;;;;;;6218400;23;20008;-87
2022/11/15 10:35:22;;;;;;;8.35;4.15;;;12.30;99.90;;;;;;6191495;23;20004;-85
2022/11/15 10:37:48;;;;;;;9.30;4.05;;;12.40;99.90;;;;;;6190838;23;20004;-85
2022/11/15 10:40:23;;;;;;;7.22;3.65;;;12.30;99.90;;;;;;6191323;23;20062;-84
2022/11/15 10:43:09;;;;;;;6.70;3.75;;;12.30;99.90;;;;;;6166706;23;20011;-86
2022/11/15 10:45:36;;;;;;;5.72;3.38;;;12.40;99.90;;;;;;6191831;23;20007;-85
2022/11/15 10:48:13;;;;;;;6.95;3.72;;;12.40;99.90;;;;;;6191178;23;20064;-86
2022/11/15 10:50:41;;;;;;;8.88;3.17;;;12.50;99.90;;;;;;6190780;23;20001;-86
2022/11/15 10:53:39;;;;;;;7.32;3.75;;;12.50;99.90;;;;;;6190858;23;20051;-87
2022/11/15 10:56:08;;;;;;;7.20;3.08;;;12.60;99.90;;;;;;6191073;23;20032;-85
2022/11/15 10:58:43;;;;;;;7.55;2.70;;;12.60;99.90;;;;;;6190662;23;20015;-86
2022/11/15 11:01:23;;;;;;;5.35;2.50;;;12.70;99.90;;;;;;6190525;23;19996;-87
2022/11/15 11:04:07;;;;;;;3.45;2.28;;;12.70;99.90;;;;;;6191039;23;20028;-88
2022/11/15 11:06:50;;;;;;;7.88;2.63;;;12.80;99.90;;;;;;6217527;23;19997;-86
2022/11/15 11:09:37;;;;;;;9.00;2.22;;;12.70;99.90;;;;;;6217618;23;20000;-85
2022/11/15 11:12:09;;;;;;;5.55;2.33;;;12.70;99.90;;;;;;6166759;23;20150;-88
2022/11/15 11:14:37;;;;;;;5.35;2.40;;;12.80;99.90;;;;;;6217611;23;19997;-88
2022/11/15 11:17:20;;;;;;;4.78;2.10;;;12.80;99.90;;;;;;6191478;23;20055;-87
2022/11/15 11:20:03;;;;;;;5.93;2.20;;;12.80;99.90;;;;;;6217437;23;20000;-88
2022/11/15 11:22:40;;;;;;;4.45;1.90;;;12.90;99.90;;;;;;6191129;23;20088;-88
2022/11/15 11:25:17;;;;;;;5.22;2.00;;;12.90;99.90;;;;;;6191189;23;20005;-89
2022/11/15 11:27:52;;;;;;;4.07;1.70;;;13.00;99.90;;;;;;6190824;23;20009;-88
2022/11/15 11:30:21;;;;;;;3.50;1.70;;;13.00;99.90;;;;;;6190661;23;20011;-88
2022/11/15 11:33:18;;;;;;;6.47;1.40;;;13.00;99.90;;;;;;6191006;23;20000;-88
2022/11/15 11:36:10;;;;;;;5.53;1.60;;;13.00;99.90;;;;;;6190107;23;20032;-86
2022/11/15 11:39:05;;;;;;;9.05;1.60;;;13.00;99.90;;;;;;6217008;23;20086;-86
2022/11/15 11:42:02;;;;;;;6.60;1.25;;;13.00;99.90;;;;;;6209634;23;20024;-88
2022/11/15 11:44:52;;;;;;;4.25;1.40;;;13.10;99.90;;;;;;6185745;23;20435;-87
2022/11/15 11:47:33;;;;;;;2.53;1.20;;;13.10;99.90;;;;;;6185528;23;20013;-87
2022/11/15 11:50:17;;;;;;;4.18;1.58;;;13.20;99.90;;;;;;6187349;23;20001;-86
2022/11/15 11:53:13;;;;;;;2.20;1.25;;;13.30;99.90;;;;;;6185603;23;20007;-87
2022/11/15 11:55:49;;;;;;;4.22;1.50;;;13.40;99.90;;;;;;6185189;23;20005;-86
2022/11/15 11:58:21;;;;;;;3.60;1.58;;;13.40;99.90;;;;;;6186322;23;20008;-87
2022/11/15 12:00:52;;;;;;;4.07;1.65;;;13.50;99.90;;;;;;6184819;23;20001;-86
2022/11/15 12:03:20;;;;;;;;;;;13.50;99.90;;;;;;6185580;23;20426;-87
2022/11/15 12:05:55;;;;;;;2.60;1.88;;;13.60;99.90;;;;;;6186340;23;19907;-88
2022/11/15 12:08:31;;;;;;;3.90;1.40;;;13.60;99.90;;;;;;6185005;23;20024;-86
2022/11/15 12:11:21;;;;;;;4.32;1.48;;;13.60;99.90;;;;;;6186440;23;20427;-85
2022/11/15 12:13:53;;;;;;;5.85;1.30;;;13.60;99.90;;;;;;6185088;23;20001;-85
2022/11/15 12:16:32;;;;;;;4.40;1.17;;;13.60;99.90;;;;;;6185540;23;20004;-86
2022/11/15 12:19:01;;;;;;;7.60;1.63;;;13.60;99.90;;;;;;6186624;23;20431;-87
2022/11/15 12:21:46;;;;;;;3.55;1.20;;;13.60;99.90;;;;;;6185120;23;20021;-86
2022/11/15 12:24:23;;;;;;;3.17;1.27;;;13.60;99.90;;;;;;6185333;23;20002;-86
2022/11/15 12:26:57;;;;;;;5.10;1.23;;;13.60;99.90;;;;;;6186243;23;20021;-85
2022/11/15 12:29:27;;;;;;;5.05;1.20;;;13.70;99.90;;;;;;6185125;23;20011;-85
2022/11/15 12:31:58;;;;;;;2.95;1.33;;;13.70;99.90;;;;;;6185243;23;20367;-86
2022/11/15 12:35:19;;;;;;;4.60;1.30;;;13.70;99.90;;;;;;6161038;23;20002;-86
2022/11/15 12:37:54;;;;;;;7.43;1.40;;;13.80;99.90;;;;;;6183401;23;20035;-87
2022/11/15 12:40:26;;;;;;;3.53;1.20;;;13.80;99.90;;;;;;6209542;23;20021;-86
2022/11/15 12:43:33;;;;;;;3.95;1.30;;;13.80;99.90;;;;;;6184648;23;20001;-86
2022/11/15 12:46:04;;;;;;;3.10;1.20;;;13.90;99.90;;;;;;6204215;23;20159;-85
2022/11/15 12:48:39;;;;;;;;;;;14.00;99.90;;;;;;6185490;23;20089;-86
2022/11/15 12:51:05;;;;;;;4.80;1.20;;;14.00;99.90;;;;;;6209649;23;19908;-87
2022/11/15 12:53:33;;;;;;;3.53;1.10;;;14.10;99.90;;;;;;6159856;23;20519;-86
2022/11/15 12:56:16;;;;;;;3.25;0.98;;;14.10;99.90;;;;;;6184586;23;19997;-86
2022/11/15 12:59:05;;;;;;;5.00;1.50;;;14.10;99.90;;;;;;6184702;23;20005;-86
2022/11/15 13:01:30;;;;;;;5.75;1.13;;;14.20;99.90;;;;;;6184759;23;20012;-85
2022/11/15 13:04:19;;;;;;;4.32;1.02;;;14.20;99.90;;;;;;6185829;23;20001;-85
2022/11/15 13:07:00;;;;;;;3.67;0.93;;;14.20;99.30;;;;;;6185015;23;20350;-86
2022/11/15 13:09:32;;;;;;;;;;;14.30;99.40;;;;;;6184843;23;19997;-85
2022/11/15 13:12:01;;;;;;;4.38;0.93;;;14.30;99.70;;;;;;6185920;23;19903;-85
2022/11/15 13:14:47;;;;;;;3.42;0.95;;;14.30;98.70;;;;;;6184157;23;19998;-85
2022/11/15 13:17:20;;;;;;;3.25;0.98;;;14.30;98.80;;;;;;6184254;23;20446;-86
2022/11/15 13:19:58;;;;;;;3.63;1.08;;;14.30;99.20;;;;;;6184324;23;20047;-85
2022/11/15 13:25:43;;;;;;;5.57;1.17;;;14.40;99.20;;;;;;6184570;23;20039;-85
2022/11/15 13:28:15;;;;;;;4.38;0.90;;;14.40;99.30;;;;;;6159702;23;20013;-85
2022/11/15 13:31:21;;;;;;;2.95;0.90;;;14.50;99.50;;;;;;6184477;23;20047;-85
2022/11/15 13:33:46;;;;;;;6.70;1.40;;;14.50;99.10;;;;;;6184048;23;20025;-85
2022/11/15 13:36:35;;;;;;;5.05;0.88;;;14.50;98.90;;;;;;6184049;23;20012;-86
2022/11/15 13:39:04;;;;;;;5.50;1.23;;;14.50;98.50;;;;;;6184380;23;20005;-86
2022/11/15 13:41:32;;;;;;;4.38;0.95;;;14.50;98.80;;;;;;6183963;23;20335;-86
2022/11/15 13:44:00;;;;;;;4.65;1.10;;;14.50;99.10;;;;;;6185730;23;20448;-86
2022/11/15 13:46:27;;;;;;;6.20;1.23;;;14.60;98.90;;;;;;6185664;23;20004;-86
2022/11/15 13:49:28;;;;;;;3.72;1.08;;;14.60;98.90;;;;;;6183631;23;20013;-86
2022/11/15 13:51:54;;;;;;;;;;;14.60;98.60;;;;;;6209634;23;20001;-85